createdAt,value
2023-03-07T00:00:27.871Z,99.99
2023-03-07T00:01:27.910Z,99.99
2023-03-07T00:02:27.894Z,99.99
2023-03-07T00:03:27.889Z,99.99
2023-03-07T00:04:27.851Z,99.99
2023-03-07T00:05:27.826Z,99.99
2023-03-07T00:06:27.828Z,99.99
2023-03-07T00:07:27.844Z,99.99
2023-03-07T00:08:27.810Z,99.99
2023-03-07T00:09:27.779Z,99.99
2023-03-07T00:10:27.754Z,99.99
2023-03-07T00:11:27.781Z,99.99
2023-03-07T00:12:27.744Z,99.99
2023-03-07T00:13:27.745Z,99.99
2023-03-07T00:14:27.722Z,99.99
2023-03-07T00:15:27.720Z,99.99
2023-03-07T00:16:27.720Z,99.99
2023-03-07T00:17:27.686Z,99.99
2023-03-07T00:18:27.679Z,99.99
2023-03-07T00:19:27.668Z,99.99
2023-03-07T00:20:27.659Z,99.99
2023-03-07T00:21:27.678Z,99.99
2023-03-07T00:22:27.638Z,99.99
2023-03-07T00:23:27.629Z,99.99
2023-03-07T00:24:27.613Z,99.99
2023-03-07T00:25:27.592Z,99.99
2023-03-07T00:26:27.600Z,99.99
2023-03-07T00:27:27.576Z,99.99
2023-03-07T00:28:27.598Z,99.99
2023-03-07T00:29:27.568Z,99.99
2023-03-07T00:30:27.554Z,99.99
2023-03-07T00:31:27.618Z,99.99
2023-03-07T00:32:27.608Z,99.99
2023-03-07T00:33:27.535Z,99.99
2023-03-07T00:34:27.512Z,99.99
2023-03-07T00:35:27.500Z,99.99
2023-03-07T00:36:27.511Z,99.99
2023-03-07T00:37:27.469Z,99.99
2023-03-07T00:38:27.461Z,99.99
2023-03-07T00:39:27.468Z,99.99
2023-03-07T00:40:27.428Z,99.99
2023-03-07T00:41:27.460Z,99.99
2023-03-07T00:42:27.417Z,99.99
2023-03-07T00:43:27.412Z,99.99
2023-03-07T00:44:27.404Z,99.99
2023-03-07T00:45:27.403Z,99.99
2023-03-07T00:46:27.405Z,99.99
2023-03-07T00:47:27.360Z,99.99
2023-03-07T00:48:27.346Z,99.99
2023-03-07T00:49:27.352Z,99.99
2023-03-07T00:50:27.354Z,99.99
2023-03-07T00:51:27.365Z,99.99
2023-03-07T00:52:27.314Z,99.99
2023-03-07T00:53:27.298Z,99.99
2023-03-07T00:54:27.297Z,99.99
2023-03-07T00:55:27.301Z,99.99
2023-03-07T00:56:27.286Z,99.99
2023-03-07T00:57:27.259Z,99.99
2023-03-07T00:58:27.243Z,99.99
2023-03-07T00:59:27.240Z,99.99
2023-03-07T01:00:27.230Z,99.99
2023-03-07T01:01:27.259Z,99.99
2023-03-07T01:02:27.201Z,99.99
2023-03-07T01:03:27.192Z,99.99
2023-03-07T01:04:27.287Z,99.99
2023-03-07T01:05:27.179Z,99.99
2023-03-07T01:06:27.176Z,99.99
2023-03-07T01:07:27.151Z,99.99
2023-03-07T01:08:27.166Z,99.99
2023-03-07T01:09:27.140Z,99.99
2023-03-07T01:10:27.114Z,99.99
2023-03-07T01:11:27.131Z,99.99
2023-03-07T01:12:27.098Z,99.99
2023-03-07T01:13:27.087Z,99.99
2023-03-07T01:14:27.077Z,99.99
2023-03-07T01:15:33.625Z,99.99
2023-03-07T01:16:27.102Z,99.99
2023-03-07T01:17:27.039Z,99.99
2023-03-07T01:18:27.035Z,99.99
2023-03-07T01:19:27.021Z,99.99
2023-03-07T01:20:27.004Z,99.99
2023-03-07T01:21:27.009Z,99.99
2023-03-07T01:22:26.978Z,99.99
2023-03-07T01:23:26.987Z,99.99
2023-03-07T01:24:26.962Z,99.99
2023-03-07T01:25:26.974Z,99.99
2023-03-07T01:26:26.967Z,99.99
2023-03-07T01:27:26.939Z,99.99
2023-03-07T01:28:26.934Z,99.99
2023-03-07T01:29:26.928Z,99.99
2023-03-07T01:30:26.896Z,99.99
2023-03-07T01:31:26.946Z,99.99
2023-03-07T01:32:26.904Z,99.99
2023-03-07T01:33:26.907Z,99.99
2023-03-07T01:34:26.858Z,99.99
2023-03-07T01:35:26.855Z,99.99
2023-03-07T01:36:26.908Z,99.99
2023-03-07T01:37:26.821Z,99.99
2023-03-07T01:38:26.821Z,99.99
2023-03-07T01:39:26.798Z,99.99
2023-03-07T01:40:26.792Z,99.99
2023-03-07T01:41:26.803Z,99.99
2023-03-07T01:42:26.817Z,99.99
2023-03-07T01:43:26.749Z,99.99
2023-03-07T01:44:26.754Z,99.99
2023-03-07T01:45:26.756Z,99.99
2023-03-07T01:46:26.764Z,99.99
2023-03-07T01:47:26.718Z,99.99
2023-03-07T01:48:26.704Z,99.99
2023-03-07T01:49:26.716Z,99.99
2023-03-07T01:50:26.703Z,99.99
2023-03-07T01:51:26.686Z,99.99
2023-03-07T01:52:26.693Z,99.99
2023-03-07T01:53:26.651Z,99.99
2023-03-07T01:54:26.643Z,99.99
2023-03-07T01:55:26.645Z,99.99
2023-03-07T01:56:26.632Z,99.99
2023-03-07T01:57:26.620Z,99.99
2023-03-07T01:58:26.592Z,99.99
2023-03-07T01:59:26.582Z,99.99
2023-03-07T02:00:26.584Z,99.99
2023-03-07T02:01:26.638Z,99.99
2023-03-07T02:02:26.549Z,99.99
2023-03-07T02:03:26.539Z,99.99
2023-03-07T02:04:26.612Z,99.99
2023-03-07T02:05:26.514Z,99.99
2023-03-07T02:06:26.512Z,99.99
2023-03-07T02:07:26.498Z,99.99
2023-03-07T02:08:26.488Z,99.99
2023-03-07T02:09:26.495Z,99.99
2023-03-07T02:10:26.460Z,99.99
2023-03-07T02:11:26.512Z,99.99
2023-03-07T02:12:26.437Z,99.99
2023-03-07T02:13:26.425Z,99.99
2023-03-07T02:14:26.410Z,99.99
2023-03-07T02:15:26.416Z,99.99
2023-03-07T02:16:26.437Z,99.99
2023-03-07T02:17:26.390Z,99.99
2023-03-07T02:18:26.384Z,99.99
2023-03-07T02:19:26.361Z,99.99
2023-03-07T02:20:26.350Z,99.99
2023-03-07T02:21:26.356Z,99.99
2023-03-07T02:22:26.340Z,99.99
2023-03-07T02:23:26.344Z,99.99
2023-03-07T02:24:26.313Z,99.99
2023-03-07T02:25:26.303Z,99.99
2023-03-07T02:26:26.311Z,99.99
2023-03-07T02:27:26.297Z,99.99
2023-03-07T02:28:26.271Z,99.99
2023-03-07T02:29:26.267Z,99.99
2023-03-07T02:30:26.240Z,99.99
2023-03-07T02:31:26.265Z,99.99
2023-03-07T02:32:26.270Z,99.99
2023-03-07T02:33:26.209Z,99.99
2023-03-07T02:34:26.204Z,99.99
2023-03-07T02:35:26.295Z,99.99
2023-03-07T02:36:26.194Z,99.99
2023-03-07T02:37:26.195Z,99.99
2023-03-07T02:38:26.166Z,99.99
2023-03-07T02:39:26.164Z,99.99
2023-03-07T02:40:26.142Z,99.99
2023-03-07T02:41:26.121Z,99.99
2023-03-07T02:42:26.139Z,99.99
2023-03-07T02:43:26.099Z,99.99
2023-03-07T02:44:26.096Z,99.99
2023-03-07T02:45:26.084Z,99.99
2023-03-07T02:46:26.089Z,99.99
2023-03-07T02:47:26.118Z,99.99
2023-03-07T02:48:26.048Z,99.99
2023-03-07T02:49:26.066Z,99.99
2023-03-07T02:50:27.280Z,99.99
2023-03-07T02:51:26.032Z,99.99
2023-03-07T02:52:26.038Z,99.99
2023-03-07T02:53:26.008Z,99.99
2023-03-07T02:54:26.005Z,99.99
2023-03-07T02:55:26.010Z,99.99
2023-03-07T02:56:25.992Z,99.99
2023-03-07T02:57:25.988Z,99.99
2023-03-07T02:58:25.961Z,99.99
2023-03-07T02:59:25.930Z,99.99
2023-03-07T03:00:25.932Z,99.99
2023-03-07T03:01:25.945Z,99.99
2023-03-07T03:02:25.936Z,99.99
2023-03-07T03:03:25.903Z,99.99
2023-03-07T03:04:25.917Z,99.99
2023-03-07T03:05:25.890Z,99.99
2023-03-07T03:06:25.865Z,99.99
2023-03-07T03:07:25.875Z,99.99
2023-03-07T03:08:25.837Z,99.99
2023-03-07T03:09:25.846Z,99.99
2023-03-07T03:10:25.818Z,99.99
2023-03-07T03:11:25.856Z,99.99
2023-03-07T03:12:25.808Z,99.99
2023-03-07T03:13:25.787Z,99.99
2023-03-07T03:14:25.813Z,99.99
2023-03-07T03:15:25.764Z,99.99
2023-03-07T03:16:25.803Z,99.99
2023-03-07T03:17:25.777Z,99.99
2023-03-07T03:18:25.730Z,99.99
2023-03-07T03:19:25.728Z,99.99
2023-03-07T03:20:25.750Z,99.99
2023-03-07T03:21:25.703Z,99.99
2023-03-07T03:22:25.712Z,99.99
2023-03-07T03:23:25.683Z,99.99
2023-03-07T03:24:25.688Z,99.99
2023-03-07T03:25:25.685Z,99.99
2023-03-07T03:26:25.652Z,99.99
2023-03-07T03:27:25.655Z,99.99
2023-03-07T03:28:25.629Z,99.99
2023-03-07T03:29:25.609Z,99.99
2023-03-07T03:30:25.644Z,99.99
2023-03-07T03:31:25.674Z,99.99
2023-03-07T03:32:25.623Z,99.99
2023-03-07T03:33:25.567Z,99.99
2023-03-07T03:34:25.581Z,99.99
2023-03-07T03:35:25.557Z,99.99
2023-03-07T03:36:25.545Z,99.99
2023-03-07T03:37:25.562Z,99.99
2023-03-07T03:38:25.520Z,99.99
2023-03-07T03:39:25.587Z,99.99
2023-03-07T03:40:25.524Z,99.99
2023-03-07T03:41:25.480Z,99.99
2023-03-07T03:42:25.487Z,99.99
2023-03-07T03:43:25.488Z,99.99
2023-03-07T03:44:25.456Z,99.99
2023-03-07T03:45:25.465Z,99.99
2023-03-07T03:46:25.461Z,99.99
2023-03-07T03:47:25.436Z,99.99
2023-03-07T03:48:25.467Z,99.99
2023-03-07T03:49:25.403Z,99.99
2023-03-07T03:50:25.383Z,99.99
2023-03-07T03:51:25.372Z,99.99
2023-03-07T03:52:25.384Z,99.99
2023-03-07T03:53:25.374Z,99.99
2023-03-07T03:54:25.351Z,99.99
2023-03-07T03:55:25.372Z,99.99
2023-03-07T03:56:25.332Z,99.99
2023-03-07T03:57:25.321Z,99.99
2023-03-07T03:58:25.297Z,99.99
2023-03-07T03:59:25.292Z,99.99
2023-03-07T04:00:25.284Z,99.99
2023-03-07T04:01:25.305Z,99.99
2023-03-07T04:02:25.345Z,99.99
2023-03-07T04:03:25.259Z,99.99
2023-03-07T04:04:25.250Z,99.99
2023-03-07T04:05:25.229Z,99.99
2023-03-07T04:06:25.218Z,99.99
2023-03-07T04:07:25.227Z,99.99
2023-03-07T04:08:25.183Z,99.99
2023-03-07T04:09:25.188Z,99.99
2023-03-07T04:10:25.206Z,99.99
2023-03-07T04:11:25.153Z,99.99
2023-03-07T04:12:25.161Z,99.99
2023-03-07T04:13:25.164Z,99.99
2023-03-07T04:14:25.132Z,99.99
2023-03-07T04:15:25.115Z,99.99
2023-03-07T04:16:25.134Z,99.99
2023-03-07T04:17:25.114Z,99.99
2023-03-07T04:18:25.076Z,99.99
2023-03-07T04:19:25.072Z,99.99
2023-03-07T04:20:25.054Z,99.99
2023-03-07T04:21:25.063Z,99.99
2023-03-07T04:22:25.073Z,99.99
2023-03-07T04:23:25.044Z,99.99
2023-03-07T04:24:25.021Z,99.99
2023-03-07T04:25:25.060Z,99.99
2023-03-07T04:26:25.040Z,99.99
2023-03-07T04:27:25.013Z,99.99
2023-03-07T04:28:24.998Z,99.99
2023-03-07T04:29:24.970Z,99.99
2023-03-07T04:30:24.966Z,99.99
2023-03-07T04:31:24.968Z,99.99
2023-03-07T04:32:24.984Z,99.99
2023-03-07T04:33:24.935Z,99.99
2023-03-07T04:34:24.905Z,99.99
2023-03-07T04:35:24.897Z,99.99
2023-03-07T04:36:24.884Z,99.99
2023-03-07T04:37:24.937Z,99.99
2023-03-07T04:38:24.885Z,99.99
2023-03-07T04:39:24.900Z,99.99
2023-03-07T04:40:24.832Z,99.99
2023-03-07T04:41:25.440Z,99.99
2023-03-07T04:42:24.833Z,99.99
2023-03-07T04:43:24.833Z,99.99
2023-03-07T04:44:24.810Z,99.99
2023-03-07T04:45:25.327Z,99.99
2023-03-07T04:46:24.774Z,99.99
2023-03-07T04:47:24.813Z,99.99
2023-03-07T04:48:24.760Z,99.99
2023-03-07T04:49:24.779Z,99.99
2023-03-07T04:50:24.734Z,99.99
2023-03-07T04:51:24.743Z,99.99
2023-03-07T04:52:24.725Z,99.99
2023-03-07T04:53:24.706Z,99.99
2023-03-07T04:54:24.703Z,99.99
2023-03-07T04:55:24.764Z,99.99
2023-03-07T04:56:24.659Z,99.99
2023-03-07T04:57:24.682Z,99.99
2023-03-07T04:58:24.671Z,99.99
2023-03-07T04:59:24.653Z,99.99
2023-03-07T05:00:24.621Z,99.99
2023-03-07T05:01:24.674Z,99.99
2023-03-07T05:02:24.622Z,99.99
2023-03-07T05:03:24.597Z,99.99
2023-03-07T05:04:24.635Z,99.99
2023-03-07T05:05:24.584Z,99.99
2023-03-07T05:06:24.587Z,99.99
2023-03-07T05:07:24.570Z,99.99
2023-03-07T05:08:24.539Z,99.99
2023-03-07T05:09:24.527Z,99.99
2023-03-07T05:10:24.518Z,99.99
2023-03-07T05:11:24.514Z,99.99
2023-03-07T05:12:24.520Z,99.99
2023-03-07T05:13:24.488Z,99.99
2023-03-07T05:14:24.476Z,99.99
2023-03-07T05:15:24.460Z,99.99
2023-03-07T05:16:24.462Z,99.99
2023-03-07T05:17:24.457Z,99.99
2023-03-07T05:18:24.458Z,99.99
2023-03-07T05:19:24.425Z,99.99
2023-03-07T05:20:24.411Z,99.99
2023-03-07T05:21:24.401Z,99.99
2023-03-07T05:22:24.414Z,99.99
2023-03-07T05:23:24.389Z,99.99
2023-03-07T05:24:24.379Z,99.99
2023-03-07T05:25:24.365Z,99.99
2023-03-07T05:26:24.351Z,99.99
2023-03-07T05:27:24.340Z,99.99
2023-03-07T05:28:24.342Z,99.99
2023-03-07T05:29:24.315Z,99.99
2023-03-07T05:30:24.352Z,99.99
2023-03-07T05:31:24.331Z,99.99
2023-03-07T05:32:24.294Z,99.99
2023-03-07T05:33:24.306Z,99.99
2023-03-07T05:34:24.268Z,99.99
2023-03-07T05:35:24.249Z,99.99
2023-03-07T05:36:24.237Z,99.99
2023-03-07T05:37:24.225Z,99.99
2023-03-07T05:38:24.225Z,99.99
2023-03-07T05:39:24.208Z,99.99
2023-03-07T05:40:24.222Z,99.99
2023-03-07T05:41:24.185Z,99.99
2023-03-07T05:42:24.182Z,99.99
2023-03-07T05:43:24.171Z,99.99
2023-03-07T05:44:24.138Z,99.99
2023-03-07T05:45:24.152Z,99.99
2023-03-07T05:46:24.184Z,99.99
2023-03-07T05:47:24.130Z,99.99
2023-03-07T05:48:24.151Z,99.99
2023-03-07T05:49:24.100Z,99.99
2023-03-07T05:50:24.094Z,99.99
2023-03-07T05:51:24.096Z,99.99
2023-03-07T05:52:24.132Z,99.99
2023-03-07T05:53:24.073Z,99.99
2023-03-07T05:54:24.043Z,99.99
2023-03-07T05:55:24.056Z,99.99
2023-03-07T05:56:24.026Z,99.99
2023-03-07T05:57:24.020Z,99.99
2023-03-07T05:58:24.038Z,99.99
2023-03-07T05:59:24.007Z,99.99
2023-03-07T06:00:23.983Z,99.99
2023-03-07T06:01:23.974Z,99.99
2023-03-07T06:02:24.005Z,99.95
2023-03-07T06:03:24.007Z,99.99
2023-03-07T06:04:23.935Z,99.99
2023-03-07T06:05:25.440Z,99.99
2023-03-07T06:06:23.918Z,99.99
2023-03-07T06:07:23.901Z,99.99
2023-03-07T06:08:23.901Z,99.99
2023-03-07T06:09:23.895Z,99.99
2023-03-07T06:10:23.871Z,99.74
2023-03-07T06:11:23.857Z,99.64
2023-03-07T06:12:23.856Z,99.74
2023-03-07T06:13:23.874Z,99.74
2023-03-07T06:14:23.815Z,99.43
2023-03-07T06:15:25.210Z,99.22
2023-03-07T06:16:23.841Z,99.12
2023-03-07T06:17:23.822Z,99.22
2023-03-07T06:18:23.802Z,98.91
2023-03-07T06:19:23.767Z,98.91
2023-03-07T06:20:23.776Z,98.91
2023-03-07T06:21:23.742Z,98.91
2023-03-07T06:22:23.764Z,98.91
2023-03-07T06:23:23.742Z,98.76
2023-03-07T06:24:23.716Z,98.60
2023-03-07T06:25:23.702Z,98.81
2023-03-07T06:26:23.703Z,98.66
2023-03-07T06:27:23.707Z,98.55
2023-03-07T06:28:23.690Z,98.45
2023-03-07T06:29:23.680Z,98.55
2023-03-07T06:30:23.648Z,98.66
2023-03-07T06:31:23.705Z,98.76
2023-03-07T06:32:23.674Z,98.66
2023-03-07T06:33:23.643Z,98.76
2023-03-07T06:34:23.624Z,98.66
2023-03-07T06:35:23.599Z,98.45
2023-03-07T06:36:23.594Z,98.24
2023-03-07T06:37:23.599Z,98.35
2023-03-07T06:38:23.577Z,98.24
2023-03-07T06:39:23.559Z,98.14
2023-03-07T06:40:23.562Z,98.14
2023-03-07T06:41:23.536Z,98.14
2023-03-07T06:42:23.528Z,98.14
2023-03-07T06:43:23.549Z,98.35
2023-03-07T06:44:23.489Z,98.55
2023-03-07T06:45:23.507Z,98.55
2023-03-07T06:46:23.477Z,98.55
2023-03-07T06:47:23.483Z,98.45
2023-03-07T06:48:23.476Z,98.03
2023-03-07T06:49:23.447Z,97.93
2023-03-07T06:50:33.445Z,97.83
2023-03-07T06:51:23.429Z,97.10
2023-03-07T06:52:23.408Z,97.06
2023-03-07T06:53:23.442Z,97.06
2023-03-07T06:54:23.415Z,96.85
2023-03-07T06:55:23.389Z,96.64
2023-03-07T06:56:23.369Z,96.85
2023-03-07T06:57:23.357Z,96.95
2023-03-07T06:58:23.367Z,97.06
2023-03-07T06:59:23.348Z,97.27
2023-03-07T07:00:23.319Z,96.95
2023-03-07T07:01:23.325Z,96.85
2023-03-07T07:02:23.429Z,96.64
2023-03-07T07:03:23.417Z,96.85
2023-03-07T07:04:23.284Z,96.95
2023-03-07T07:05:23.278Z,96.33
2023-03-07T07:06:23.258Z,96.12
2023-03-07T07:07:23.265Z,95.77
2023-03-07T07:08:23.261Z,96.08
2023-03-07T07:09:23.229Z,95.56
2023-03-07T07:10:23.206Z,95.04
2023-03-07T07:11:23.225Z,94.84
2023-03-07T07:12:23.203Z,95.25
2023-03-07T07:13:23.198Z,95.15
2023-03-07T07:14:23.183Z,95.25
2023-03-07T07:15:23.191Z,95.46
2023-03-07T07:16:23.191Z,95.67
2023-03-07T07:17:23.141Z,95.15
2023-03-07T07:18:23.160Z,95.36
2023-03-07T07:19:23.125Z,95.15
2023-03-07T07:20:23.105Z,95.15
2023-03-07T07:21:23.106Z,95.25
2023-03-07T07:22:23.079Z,95.46
2023-03-07T07:23:23.123Z,95.36
2023-03-07T07:24:23.128Z,95.46
2023-03-07T07:25:23.055Z,95.31
2023-03-07T07:26:23.049Z,95.41
2023-03-07T07:27:23.013Z,95.41
2023-03-07T07:28:23.062Z,95.41
2023-03-07T07:29:23.004Z,95.41
2023-03-07T07:30:23.010Z,94.89
2023-03-07T07:31:23.042Z,94.89
2023-03-07T07:32:23.297Z,95.00
2023-03-07T07:33:31.109Z,95.41
2023-03-07T07:34:22.967Z,95.51
2023-03-07T07:35:22.947Z,95.62
2023-03-07T07:36:23.008Z,95.51
2023-03-07T07:37:22.942Z,95.10
2023-03-07T07:38:22.955Z,94.68
2023-03-07T07:39:22.909Z,94.79
2023-03-07T07:40:22.902Z,94.79
2023-03-07T07:41:22.872Z,94.48
2023-03-07T07:42:22.894Z,93.75
2023-03-07T07:43:22.886Z,93.71
2023-03-07T07:44:22.864Z,93.81
2023-03-07T07:45:22.838Z,93.81
2023-03-07T07:46:22.854Z,94.02
2023-03-07T07:47:22.844Z,94.33
2023-03-07T07:48:22.829Z,93.40
2023-03-07T07:49:22.832Z,93.29
2023-03-07T07:50:22.787Z,93.60
2023-03-07T07:51:22.786Z,93.40
2023-03-07T07:52:22.769Z,93.46
2023-03-07T07:53:22.784Z,93.81
2023-03-07T07:54:22.776Z,93.87
2023-03-07T07:55:22.739Z,93.66
2023-03-07T07:56:22.731Z,93.15
2023-03-07T07:57:22.890Z,93.15
2023-03-07T07:58:22.724Z,93.46
2023-03-07T07:59:22.697Z,93.15
2023-03-07T08:00:22.696Z,93.25
2023-03-07T08:01:22.678Z,93.46
2023-03-07T08:02:22.679Z,93.66
2023-03-07T08:03:22.715Z,93.66
2023-03-07T08:04:22.651Z,93.66
2023-03-07T08:05:22.632Z,94.18
2023-03-07T08:06:22.620Z,94.39
2023-03-07T08:07:22.611Z,94.70
2023-03-07T08:08:22.615Z,94.76
2023-03-07T08:09:22.586Z,94.24
2023-03-07T08:10:22.593Z,94.29
2023-03-07T08:11:22.646Z,93.98
2023-03-07T08:12:22.567Z,93.77
2023-03-07T08:13:22.575Z,93.04
2023-03-07T08:14:22.539Z,92.84
2023-03-07T08:15:22.535Z,92.74
2023-03-07T08:16:22.528Z,93.04
2023-03-07T08:17:22.505Z,93.21
2023-03-07T08:18:22.519Z,93.35
2023-03-07T08:19:22.480Z,93.25
2023-03-07T08:20:22.621Z,93.56
2023-03-07T08:21:22.485Z,93.56
2023-03-07T08:22:22.447Z,93.66
2023-03-07T08:23:22.458Z,93.04
2023-03-07T08:24:29.388Z,92.11
2023-03-07T08:25:22.430Z,92.22
2023-03-07T08:26:22.401Z,91.91
2023-03-07T08:27:22.404Z,92.07
2023-03-07T08:28:22.399Z,92.43
2023-03-07T08:29:22.372Z,92.01
2023-03-07T08:30:22.363Z,91.55
2023-03-07T08:31:22.405Z,91.55
2023-03-07T08:32:22.404Z,91.76
2023-03-07T08:33:22.346Z,92.07
2023-03-07T08:34:22.319Z,92.38
2023-03-07T08:35:22.325Z,92.59
2023-03-07T08:36:22.292Z,92.69
2023-03-07T08:37:22.289Z,92.76
2023-03-07T08:38:22.300Z,92.90
2023-03-07T08:39:22.255Z,92.28
2023-03-07T08:40:22.279Z,92.07
2023-03-07T08:41:22.289Z,91.45
2023-03-07T08:42:22.308Z,91.86
2023-03-07T08:43:22.247Z,92.07
2023-03-07T08:44:22.212Z,92.69
2023-03-07T08:45:22.931Z,92.80
2023-03-07T08:46:22.255Z,92.80
2023-03-07T08:47:22.175Z,93.00
2023-03-07T08:48:22.192Z,93.21
2023-03-07T08:49:22.155Z,93.21
2023-03-07T08:50:22.164Z,93.21
2023-03-07T08:51:22.127Z,92.80
2023-03-07T08:52:22.119Z,92.80
2023-03-07T08:53:22.146Z,93.00
2023-03-07T08:54:22.108Z,93.31
2023-03-07T08:55:22.092Z,93.00
2023-03-07T08:56:22.061Z,92.85
2023-03-07T08:57:22.055Z,92.44
2023-03-07T08:58:22.075Z,92.13
2023-03-07T08:59:22.048Z,92.13
2023-03-07T09:00:22.030Z,92.44
2023-03-07T09:01:22.085Z,92.65
2023-03-07T09:02:22.009Z,92.34
2023-03-07T09:03:22.044Z,92.24
2023-03-07T09:04:22.098Z,92.44
2023-03-07T09:05:21.969Z,91.93
2023-03-07T09:06:21.970Z,91.82
2023-03-07T09:07:21.946Z,92.13
2023-03-07T09:08:21.961Z,92.76
2023-03-07T09:09:21.925Z,92.55
2023-03-07T09:10:21.915Z,92.24
2023-03-07T09:11:21.919Z,92.34
2023-03-07T09:12:21.901Z,92.03
2023-03-07T09:13:21.907Z,91.51
2023-03-07T09:14:21.875Z,91.72
2023-03-07T09:15:21.880Z,91.93
2023-03-07T09:16:22.098Z,91.93
2023-03-07T09:17:21.842Z,92.44
2023-03-07T09:18:21.862Z,91.93
2023-03-07T09:19:22.157Z,91.51
2023-03-07T09:20:21.806Z,92.44
2023-03-07T09:21:21.794Z,92.55
2023-03-07T09:22:21.791Z,92.65
2023-03-07T09:23:21.788Z,92.13
2023-03-07T09:24:21.809Z,91.93
2023-03-07T09:25:21.749Z,92.24
2023-03-07T09:26:21.744Z,91.82
2023-03-07T09:27:21.742Z,91.20
2023-03-07T09:28:21.739Z,91.09
2023-03-07T09:29:21.721Z,91.20
2023-03-07T09:30:21.700Z,91.51
2023-03-07T09:31:21.710Z,90.89
2023-03-07T09:32:21.682Z,91.26
2023-03-07T09:33:21.690Z,91.67
2023-03-07T09:34:21.668Z,91.88
2023-03-07T09:35:21.664Z,91.47
2023-03-07T09:36:21.640Z,91.05
2023-03-07T09:37:21.629Z,91.47
2023-03-07T09:38:21.647Z,91.78
2023-03-07T09:39:21.606Z,91.47
2023-03-07T09:40:21.633Z,90.23
2023-03-07T09:41:21.593Z,90.44
2023-03-07T09:42:21.617Z,90.44
2023-03-07T09:43:21.594Z,90.33
2023-03-07T09:44:21.557Z,90.64
2023-03-07T09:45:21.542Z,90.64
2023-03-07T09:46:21.523Z,90.84
2023-03-07T09:47:21.537Z,91.78
2023-03-07T09:48:21.500Z,92.09
2023-03-07T09:49:21.517Z,92.19
2023-03-07T09:50:21.515Z,92.44
2023-03-07T09:51:21.471Z,93.10
2023-03-07T09:52:21.462Z,91.70
2023-03-07T09:53:21.476Z,92.53
2023-03-07T09:54:21.486Z,93.04
2023-03-07T09:55:21.440Z,93.75
2023-03-07T09:56:21.443Z,94.01
2023-03-07T09:57:21.421Z,94.36
2023-03-07T09:58:21.404Z,94.88
2023-03-07T09:59:23.426Z,95.54
2023-03-07T10:00:21.379Z,96.21
2023-03-07T10:01:21.370Z,96.42
2023-03-07T10:02:21.368Z,96.94
2023-03-07T10:03:21.415Z,97.19
2023-03-07T10:04:21.404Z,97.50
2023-03-07T10:05:21.325Z,97.92
2023-03-07T10:06:21.316Z,98.02
2023-03-07T10:07:21.313Z,98.13
2023-03-07T10:08:21.288Z,98.13
2023-03-07T10:09:21.359Z,98.13
2023-03-07T10:10:21.279Z,97.92
2023-03-07T10:11:21.298Z,97.92
2023-03-07T10:12:21.248Z,97.92
2023-03-07T10:13:21.245Z,98.02
2023-03-07T10:14:21.272Z,98.13
2023-03-07T10:15:21.232Z,98.13
2023-03-07T10:16:21.262Z,98.23
2023-03-07T10:17:21.480Z,98.33
2023-03-07T10:18:21.184Z,98.17
2023-03-07T10:19:21.196Z,98.17
2023-03-07T10:20:21.173Z,98.17
2023-03-07T10:21:21.168Z,98.27
2023-03-07T10:22:21.140Z,98.48
2023-03-07T10:23:22.690Z,98.84
2023-03-07T10:24:21.204Z,99.05
2023-03-07T10:25:21.105Z,99.21
2023-03-07T10:26:21.111Z,99.32
2023-03-07T10:27:21.095Z,99.42
2023-03-07T10:28:21.097Z,99.32
2023-03-07T10:29:21.085Z,99.32
2023-03-07T10:30:21.113Z,99.37
2023-03-07T10:31:21.074Z,99.48
2023-03-07T10:32:21.070Z,99.48
2023-03-07T10:33:21.010Z,99.43
2023-03-07T10:34:27.019Z,99.02
2023-03-07T10:35:21.121Z,98.60
2023-03-07T10:36:20.999Z,98.50
2023-03-07T10:37:20.993Z,98.60
2023-03-07T10:38:20.971Z,98.55
2023-03-07T10:39:20.974Z,98.66
2023-03-07T10:40:20.940Z,98.66
2023-03-07T10:41:20.960Z,98.66
2023-03-07T10:42:20.918Z,98.41
2023-03-07T10:43:20.918Z,98.41
2023-03-07T10:44:20.957Z,98.41
2023-03-07T10:45:20.895Z,97.99
2023-03-07T10:46:26.344Z,97.27
2023-03-07T10:47:20.878Z,97.16
2023-03-07T10:48:20.845Z,97.06
2023-03-07T10:49:20.858Z,97.33
2023-03-07T10:50:20.838Z,97.22
2023-03-07T10:51:20.815Z,97.43
2023-03-07T10:52:20.852Z,97.49
2023-03-07T10:53:20.794Z,96.97
2023-03-07T10:54:20.836Z,97.17
2023-03-07T10:55:23.376Z,97.34
2023-03-07T10:56:20.762Z,97.03
2023-03-07T10:57:20.748Z,96.82
2023-03-07T10:58:20.752Z,96.82
2023-03-07T10:59:20.771Z,96.51
2023-03-07T11:00:21.997Z,96.09
2023-03-07T11:01:20.811Z,96.15
2023-03-07T11:02:20.695Z,95.84
2023-03-07T11:03:20.706Z,95.53
2023-03-07T11:04:20.729Z,95.74
2023-03-07T11:05:20.665Z,95.74
2023-03-07T11:06:20.656Z,95.84
2023-03-07T11:07:20.676Z,96.05
2023-03-07T11:08:20.648Z,96.15
2023-03-07T11:09:20.659Z,95.78
2023-03-07T11:10:20.609Z,95.06
2023-03-07T11:11:20.628Z,95.20
2023-03-07T11:12:20.598Z,95.51
2023-03-07T11:13:20.581Z,95.72
2023-03-07T11:14:20.598Z,95.93
2023-03-07T11:15:20.557Z,96.24
2023-03-07T11:16:20.712Z,96.34
2023-03-07T11:17:20.539Z,96.34
2023-03-07T11:18:20.528Z,96.34
2023-03-07T11:19:20.544Z,96.51
2023-03-07T11:20:20.511Z,96.14
2023-03-07T11:21:20.498Z,96.14
2023-03-07T11:22:20.490Z,96.24
2023-03-07T11:23:20.466Z,95.41
2023-03-07T11:24:20.490Z,95.62
2023-03-07T11:25:20.456Z,95.72
2023-03-07T11:26:20.433Z,95.93
2023-03-07T11:27:20.425Z,95.83
2023-03-07T11:28:20.412Z,94.89
2023-03-07T11:29:20.433Z,95.20
2023-03-07T11:30:20.411Z,95.00
2023-03-07T11:31:20.428Z,95.10
2023-03-07T11:32:20.410Z,95.26
2023-03-07T11:33:20.356Z,95.47
2023-03-07T11:34:20.366Z,95.57
2023-03-07T11:35:20.346Z,95.68
2023-03-07T11:36:20.333Z,95.78
2023-03-07T11:37:22.632Z,95.68
2023-03-07T11:38:20.326Z,95.57
2023-03-07T11:39:20.325Z,95.47
2023-03-07T11:40:20.303Z,95.68
2023-03-07T11:41:20.266Z,96.09
2023-03-07T11:42:20.271Z,96.51
2023-03-07T11:43:20.274Z,96.61
2023-03-07T11:44:20.267Z,96.41
2023-03-07T11:45:20.244Z,96.09
2023-03-07T11:46:20.310Z,95.89
2023-03-07T11:47:20.204Z,95.99
2023-03-07T11:48:20.191Z,96.09
2023-03-07T11:49:21.771Z,96.55
2023-03-07T11:50:20.174Z,95.31
2023-03-07T11:51:20.182Z,95.00
2023-03-07T11:52:20.158Z,95.16
2023-03-07T11:53:20.151Z,95.37
2023-03-07T11:54:20.217Z,95.57
2023-03-07T11:55:20.139Z,95.26
2023-03-07T11:56:20.115Z,94.12
2023-03-07T11:57:20.120Z,93.91
2023-03-07T11:58:20.126Z,93.66
2023-03-07T11:59:20.104Z,93.66
2023-03-07T12:00:20.089Z,94.18
2023-03-07T12:01:20.062Z,94.39
2023-03-07T12:02:20.063Z,94.66
2023-03-07T12:03:20.040Z,94.66
2023-03-07T12:04:20.042Z,94.24
2023-03-07T12:05:20.078Z,93.00
2023-03-07T12:06:20.021Z,92.49
2023-03-07T12:07:19.999Z,92.07
2023-03-07T12:08:20.009Z,91.14
2023-03-07T12:09:19.993Z,90.31
2023-03-07T12:10:19.965Z,90.52
2023-03-07T12:11:19.945Z,89.17
2023-03-07T12:12:19.954Z,89.28
2023-03-07T12:13:19.945Z,89.07
2023-03-07T12:14:19.938Z,88.30
2023-03-07T12:15:19.911Z,88.92
2023-03-07T12:16:19.988Z,89.86
2023-03-07T12:17:19.898Z,89.13
2023-03-07T12:18:19.886Z,89.44
2023-03-07T12:19:19.900Z,89.29
2023-03-07T12:20:19.887Z,88.46
2023-03-07T12:21:19.872Z,87.33
2023-03-07T12:22:19.829Z,85.47
2023-03-07T12:23:19.830Z,85.94
2023-03-07T12:24:19.843Z,85.84
2023-03-07T12:25:19.799Z,85.63
2023-03-07T12:26:19.795Z,86.25
2023-03-07T12:27:19.790Z,86.05
2023-03-07T12:28:19.771Z,82.74
2023-03-07T12:29:19.781Z,82.32
2023-03-07T12:30:19.758Z,81.29
2023-03-07T12:31:19.784Z,81.81
2023-03-07T12:32:20.019Z,80.98
2023-03-07T12:33:19.925Z,77.05
2023-03-07T12:34:19.727Z,77.26
2023-03-07T12:35:19.700Z,79.12
2023-03-07T12:36:19.703Z,80.46
2023-03-07T12:37:19.672Z,79.43
2023-03-07T12:38:19.683Z,78.70
2023-03-07T12:39:19.680Z,77.15
2023-03-07T12:40:19.644Z,78.70
2023-03-07T12:41:19.630Z,79.26
2023-03-07T12:42:19.633Z,75.32
2023-03-07T12:43:19.624Z,77.39
2023-03-07T12:44:19.630Z,77.70
2023-03-07T12:45:19.617Z,76.78
2023-03-07T12:46:19.753Z,76.57
2023-03-07T12:47:19.577Z,77.50
2023-03-07T12:48:19.558Z,77.50
2023-03-07T12:49:19.593Z,77.53
2023-03-07T12:50:19.555Z,77.22
2023-03-07T12:51:19.554Z,75.46
2023-03-07T12:52:19.522Z,74.74